createdAt,value
2018-07-15T00:01:35.574Z,18.18
2018-07-15T00:02:35.564Z,18.04
2018-07-15T00:04:28.498Z,18.12
2018-07-15T00:05:28.511Z,18.10
2018-07-15T00:07:21.457Z,18.09
2018-07-15T00:08:21.453Z,18.04
2018-07-15T00:10:14.381Z,18.02
2018-07-15T00:11:14.397Z,17.99
2018-07-15T00:13:07.343Z,18.09
2018-07-15T00:14:07.344Z,18.04
2018-07-15T00:16:00.280Z,18.07
2018-07-15T00:17:00.295Z,18.09
2018-07-15T00:18:53.250Z,18.10
2018-07-15T00:19:53.239Z,18.06
2018-07-15T00:21:46.184Z,18.04
2018-07-15T00:22:46.179Z,17.99
2018-07-15T00:24:39.119Z,18.00
2018-07-15T00:25:39.131Z,17.95
2018-07-15T00:27:32.077Z,17.94
2018-07-15T00:28:32.074Z,18.02
2018-07-15T00:30:25.004Z,17.89
2018-07-15T00:31:25.022Z,17.94
2018-07-15T00:33:17.962Z,17.97
2018-07-15T00:34:17.960Z,17.95
2018-07-15T00:36:10.885Z,17.87
2018-07-15T00:37:10.900Z,17.88
2018-07-15T00:39:03.866Z,17.92
2018-07-15T00:40:03.856Z,17.91
2018-07-15T00:41:56.801Z,17.89
2018-07-15T00:42:56.799Z,17.84
2018-07-15T00:44:49.725Z,17.79
2018-07-15T00:45:49.737Z,17.71
2018-07-15T00:47:42.687Z,17.81
2018-07-15T00:48:42.681Z,17.76
2018-07-15T00:50:35.608Z,17.76
2018-07-15T00:51:35.625Z,17.81
2018-07-15T00:53:28.573Z,17.82
2018-07-15T00:54:28.571Z,17.69
2018-07-15T00:56:21.501Z,17.81
2018-07-15T00:57:21.513Z,17.79
2018-07-15T00:59:14.463Z,17.85
2018-07-15T01:00:14.463Z,17.88
2018-07-15T01:02:07.406Z,17.94
2018-07-15T01:03:07.403Z,17.89
2018-07-15T01:05:00.328Z,17.87
2018-07-15T01:06:00.342Z,17.89
2018-07-15T01:07:53.296Z,17.99
2018-07-15T01:08:53.290Z,17.92
2018-07-15T01:10:46.224Z,17.89
2018-07-15T01:11:46.229Z,17.95
2018-07-15T01:13:39.175Z,17.95
2018-07-15T01:14:39.169Z,17.88
2018-07-15T01:16:32.101Z,17.85
2018-07-15T01:17:32.111Z,17.79
2018-07-15T01:19:25.073Z,17.88
2018-07-15T01:20:25.065Z,17.71
2018-07-15T01:22:18.013Z,17.78
2018-07-15T01:23:18.008Z,17.74
2018-07-15T01:25:10.934Z,17.76
2018-07-15T01:26:10.951Z,17.57
2018-07-15T01:28:03.899Z,17.47
2018-07-15T01:29:03.895Z,17.51
2018-07-15T01:30:56.827Z,17.41
2018-07-15T01:31:56.845Z,17.44
2018-07-15T01:33:49.791Z,17.46
2018-07-15T01:34:49.786Z,17.40
2018-07-15T01:36:42.712Z,17.50
2018-07-15T01:37:42.727Z,17.54
2018-07-15T01:39:35.674Z,17.43
2018-07-15T01:40:35.667Z,17.33
2018-07-15T01:42:28.620Z,17.30
2018-07-15T01:43:28.614Z,17.23
2018-07-15T01:45:21.541Z,17.14
2018-07-15T01:46:21.559Z,17.06
2018-07-15T01:48:14.499Z,17.08
2018-07-15T01:49:14.497Z,17.08
2018-07-15T01:51:07.424Z,17.00
2018-07-15T01:52:07.432Z,16.89
2018-07-15T01:54:00.383Z,16.86
2018-07-15T01:55:00.379Z,16.89
2018-07-15T02:23:51.918Z,16.45
2018-07-15T02:24:51.909Z,16.50
2018-07-15T02:26:44.823Z,16.58
2018-07-15T02:27:44.829Z,16.50
2018-07-15T02:29:37.763Z,16.50
2018-07-15T02:30:37.757Z,16.53
2018-07-15T02:32:30.695Z,16.41
2018-07-15T02:33:30.690Z,16.56
2018-07-15T02:35:23.611Z,16.45
2018-07-15T02:36:23.625Z,16.40
2018-07-15T02:38:16.561Z,16.44
2018-07-15T02:39:16.557Z,16.37
2018-07-15T02:41:09.476Z,16.37
2018-07-15T02:42:09.487Z,16.31
2018-07-15T02:44:02.446Z,16.30
2018-07-15T02:45:02.433Z,16.23
2018-07-15T02:46:55.362Z,16.26
2018-07-15T02:47:55.370Z,16.20
2018-07-15T02:49:48.313Z,16.18
2018-07-15T02:50:48.310Z,16.14
2018-07-15T02:52:41.259Z,16.12
2018-07-15T02:53:41.251Z,16.14
2018-07-15T02:55:34.181Z,16.12
2018-07-15T02:56:34.193Z,16.18
2018-07-15T02:58:27.167Z,16.18
2018-07-15T02:59:27.137Z,16.18
2018-07-15T03:01:20.060Z,16.27
2018-07-15T03:02:20.076Z,16.25
2018-07-15T03:04:13.022Z,16.33
2018-07-15T03:05:13.016Z,16.34
2018-07-15T03:07:05.936Z,16.42
2018-07-15T03:08:05.953Z,16.41
2018-07-15T03:09:58.898Z,16.45
2018-07-15T03:10:58.899Z,16.44
2018-07-15T03:12:51.838Z,16.56
2018-07-15T03:13:51.839Z,16.59
2018-07-15T03:15:44.783Z,16.60
2018-07-15T03:16:44.782Z,16.63
2018-07-15T03:18:37.720Z,16.68
2018-07-15T03:19:37.720Z,16.62
2018-07-15T03:21:30.643Z,16.59
2018-07-15T03:22:30.657Z,16.67
2018-07-15T03:24:23.606Z,16.67
2018-07-15T03:25:23.605Z,16.65
2018-07-15T03:27:16.530Z,16.59
2018-07-15T03:28:16.544Z,16.59
2018-07-15T03:30:09.486Z,16.62
2018-07-15T03:31:09.535Z,16.60
2018-07-15T03:33:02.434Z,16.58
2018-07-15T03:34:02.459Z,16.62
2018-07-15T03:35:55.371Z,16.62
2018-07-15T03:36:55.361Z,16.70
2018-07-15T03:38:48.308Z,16.60
2018-07-15T03:39:48.363Z,16.56
2018-07-15T03:41:41.230Z,16.58
2018-07-15T03:42:41.243Z,16.56
2018-07-15T03:44:34.242Z,16.53
2018-07-15T03:45:34.232Z,16.49
2018-07-15T03:47:27.176Z,16.48
2018-07-15T03:48:27.176Z,16.40
2018-07-15T03:50:20.124Z,16.42
2018-07-15T03:51:20.181Z,16.48
2018-07-15T03:53:13.044Z,16.48
2018-07-15T03:54:13.059Z,16.38
2018-07-15T03:56:06.008Z,16.27
2018-07-15T03:57:06.006Z,16.22
2018-07-15T03:58:58.946Z,16.23
2018-07-15T03:59:58.940Z,16.26
2018-07-15T04:01:51.864Z,16.23
2018-07-15T04:02:51.879Z,16.30
2018-07-15T04:04:44.835Z,16.25
2018-07-15T04:05:44.831Z,16.23
2018-07-15T04:07:37.755Z,16.26
2018-07-15T04:08:37.792Z,16.26
2018-07-15T04:10:30.712Z,16.27
2018-07-15T04:11:30.707Z,16.40
2018-07-15T04:13:23.635Z,16.40
2018-07-15T04:14:23.647Z,16.45
2018-07-15T04:16:16.596Z,16.40
2018-07-15T04:17:16.594Z,16.37
2018-07-15T04:19:09.537Z,16.56
2018-07-15T04:20:09.535Z,16.41
2018-07-15T04:22:02.468Z,16.58
2018-07-15T04:23:02.483Z,16.56
2018-07-15T04:24:55.432Z,16.60
2018-07-15T04:25:55.429Z,16.60
2018-07-15T04:27:48.353Z,16.68
2018-07-15T04:28:48.367Z,16.77
2018-07-15T04:30:41.314Z,16.75
2018-07-15T04:31:41.312Z,16.88
2018-07-15T04:33:34.236Z,16.88
2018-07-15T04:34:34.255Z,16.88
2018-07-15T04:36:27.199Z,16.96
2018-07-15T04:37:27.196Z,17.04
2018-07-15T04:39:20.150Z,17.04
2018-07-15T04:40:20.138Z,17.07
2018-07-15T04:42:13.062Z,17.06
2018-07-15T04:43:13.081Z,16.99
2018-07-15T04:45:06.033Z,16.99
2018-07-15T04:46:06.047Z,17.06
2018-07-15T04:47:58.954Z,17.15
2018-07-15T04:48:58.967Z,17.22
2018-07-15T04:50:51.911Z,17.15
2018-07-15T04:51:51.911Z,17.15
2018-07-15T04:53:44.835Z,17.29
2018-07-15T04:54:44.849Z,17.23
2018-07-15T04:56:37.796Z,17.32
2018-07-15T04:57:37.792Z,17.30
2018-07-15T04:59:30.740Z,17.29
2018-07-15T05:00:30.735Z,17.36
2018-07-15T05:02:23.665Z,17.40
2018-07-15T05:03:23.680Z,17.33
2018-07-15T05:05:16.635Z,17.46
2018-07-15T05:06:16.626Z,17.51
2018-07-15T05:08:09.546Z,17.63
2018-07-15T05:09:09.564Z,17.63
2018-07-15T05:11:02.502Z,17.62
2018-07-15T05:12:02.500Z,17.74
2018-07-15T05:13:55.446Z,17.78
2018-07-15T05:14:55.446Z,17.81
2018-07-15T05:16:48.391Z,17.85
2018-07-15T05:17:48.382Z,17.84
2018-07-15T05:19:41.331Z,17.89
2018-07-15T05:20:41.330Z,17.97
2018-07-15T05:22:34.260Z,17.89
2018-07-15T05:23:34.271Z,17.89
2018-07-15T05:25:27.218Z,17.97
2018-07-15T05:26:27.216Z,17.97
2018-07-15T05:28:20.142Z,18.00
2018-07-15T05:29:20.157Z,18.04
2018-07-15T05:31:13.105Z,18.02
2018-07-15T05:32:13.101Z,18.19
2018-07-15T05:34:06.028Z,19.15
2018-07-15T05:35:06.054Z,20.56
2018-07-15T05:36:58.992Z,23.20
2018-07-15T05:37:58.987Z,24.10
2018-07-15T05:39:51.937Z,25.30
2018-07-15T05:40:51.936Z,25.98
2018-07-15T05:42:44.862Z,26.81
2018-07-15T05:43:44.883Z,27.38
2018-07-15T05:45:37.838Z,28.06
2018-07-15T05:46:37.834Z,28.36
2018-07-15T05:48:30.771Z,28.04
2018-07-15T05:49:30.792Z,28.07
2018-07-15T05:51:23.747Z,28.01
2018-07-15T05:52:23.756Z,27.84
2018-07-15T05:54:16.690Z,28.29
2018-07-15T05:55:16.710Z,28.40
2018-07-15T05:57:09.670Z,28.22
2018-07-15T05:58:09.668Z,28.40
2018-07-15T06:00:02.631Z,28.53
2018-07-15T06:01:02.640Z,29.04
2018-07-15T06:02:55.585Z,29.40
2018-07-15T06:03:55.609Z,29.70
2018-07-15T06:05:48.573Z,29.81
2018-07-15T06:06:48.574Z,29.44
2018-07-15T06:08:41.521Z,30.18
2018-07-15T06:09:41.543Z,29.84
2018-07-15T06:11:34.503Z,29.57
2018-07-15T06:12:34.509Z,30.03
2018-07-15T06:14:27.456Z,29.96
2018-07-15T06:15:27.482Z,29.50
2018-07-15T06:17:20.448Z,28.70
2018-07-15T06:18:20.454Z,28.54
2018-07-15T06:20:13.424Z,28.22
2018-07-15T06:21:13.427Z,27.99
2018-07-15T06:23:06.374Z,28.04
2018-07-15T06:24:06.403Z,27.95
2018-07-15T06:25:59.366Z,28.31
2018-07-15T06:26:59.369Z,28.28
2018-07-15T06:28:52.314Z,28.28
2018-07-15T06:29:52.339Z,28.78
2018-07-15T06:31:45.351Z,30.07
2018-07-15T06:32:45.326Z,29.87
2018-07-15T06:34:38.254Z,29.29
2018-07-15T06:35:38.281Z,28.84
2018-07-15T06:37:31.376Z,28.81
2018-07-15T06:38:31.386Z,29.00
2018-07-15T06:40:24.357Z,28.72
2018-07-15T06:41:24.358Z,28.58
2018-07-15T06:43:17.304Z,28.82
2018-07-15T06:44:17.329Z,28.91
2018-07-15T06:46:10.300Z,29.07
2018-07-15T06:47:10.307Z,29.08
2018-07-15T06:49:03.251Z,30.14
2018-07-15T06:50:03.276Z,29.94
2018-07-15T06:51:56.246Z,29.75
2018-07-15T06:52:56.252Z,29.26
2018-07-15T06:54:49.200Z,29.06
2018-07-15T06:55:49.291Z,29.08
2018-07-15T06:57:42.196Z,29.07
2018-07-15T06:58:42.201Z,29.26
2018-07-15T07:00:35.179Z,29.41
2018-07-15T07:01:35.235Z,29.49
2018-07-15T07:03:28.131Z,29.29
2018-07-15T07:04:28.155Z,29.31
2018-07-15T07:06:21.131Z,29.70
2018-07-15T07:07:21.317Z,29.86
2018-07-15T07:09:14.078Z,30.16
2018-07-15T07:10:14.105Z,30.74
2018-07-15T07:12:07.067Z,31.01
2018-07-15T07:13:07.074Z,31.12
2018-07-15T07:15:00.026Z,31.08
2018-07-15T07:16:00.045Z,31.48
2018-07-15T07:17:53.017Z,31.35
2018-07-15T07:18:53.018Z,30.71
2018-07-15T07:20:45.985Z,30.64
2018-07-15T07:21:45.990Z,30.19
2018-07-15T07:23:38.942Z,29.89
2018-07-15T07:24:38.959Z,29.37
2018-07-15T07:26:31.927Z,29.43
2018-07-15T07:27:31.934Z,29.22
2018-07-15T07:29:24.878Z,29.16
2018-07-15T07:30:24.902Z,29.53
2018-07-15T07:32:17.870Z,30.14
2018-07-15T07:33:17.875Z,29.90
2018-07-15T07:35:10.818Z,29.87
2018-07-15T07:36:10.851Z,29.56
2018-07-15T07:38:03.810Z,29.41
2018-07-15T07:39:03.825Z,29.56
2018-07-15T07:40:56.786Z,29.63
2018-07-15T07:41:56.799Z,29.29
2018-07-15T07:43:49.737Z,29.01
2018-07-15T07:44:49.765Z,29.31
2018-07-15T07:46:42.731Z,29.22
2018-07-15T07:47:42.735Z,29.29
2018-07-15T07:49:35.681Z,29.59
2018-07-15T07:50:35.703Z,29.87
2018-07-15T07:52:28.671Z,30.15
2018-07-15T07:53:28.680Z,30.61
2018-07-15T07:55:21.629Z,29.79
2018-07-15T07:56:21.642Z,29.31
2018-07-15T07:58:14.613Z,29.00
2018-07-15T07:59:14.615Z,28.88
2018-07-15T08:01:07.581Z,29.08
2018-07-15T08:02:07.585Z,29.18
2018-07-15T08:04:00.533Z,29.04
2018-07-15T08:05:00.554Z,28.88
2018-07-15T08:06:53.520Z,28.50
2018-07-15T08:07:53.528Z,28.56
2018-07-15T08:09:46.473Z,28.56
2018-07-15T08:10:46.494Z,28.38
2018-07-15T08:12:39.464Z,28.31
2018-07-15T08:13:39.462Z,28.10
2018-07-15T08:15:32.407Z,28.41
2018-07-15T08:16:32.436Z,28.58
2018-07-15T08:18:25.393Z,29.01
2018-07-15T08:19:25.395Z,29.01
2018-07-15T08:21:18.355Z,29.25
2018-07-15T08:22:18.361Z,28.84
2018-07-15T08:24:11.306Z,28.77
2018-07-15T08:25:11.330Z,28.25
2018-07-15T08:27:04.299Z,28.63
2018-07-15T08:28:04.331Z,28.54
2018-07-15T08:29:57.244Z,28.29
2018-07-15T08:30:57.268Z,28.40
2018-07-15T08:32:50.227Z,28.13
2018-07-15T08:33:50.230Z,28.10
2018-07-15T08:35:43.169Z,28.10
2018-07-15T08:36:43.196Z,27.76
2018-07-15T08:38:36.155Z,27.21
2018-07-15T08:39:36.157Z,27.28
2018-07-15T08:41:29.123Z,27.58
2018-07-15T08:42:29.124Z,27.50
2018-07-15T08:44:22.067Z,27.42
2018-07-15T08:45:22.086Z,27.11
2018-07-15T08:47:15.048Z,27.06
2018-07-15T08:48:15.048Z,27.26
2018-07-15T08:50:07.994Z,28.03
2018-07-15T08:51:08.019Z,28.22
2018-07-15T08:53:00.973Z,28.22
2018-07-15T08:54:00.977Z,27.99
2018-07-15T08:55:53.913Z,28.28
2018-07-15T08:56:54.226Z,28.40
2018-07-15T08:58:46.896Z,28.09
2018-07-15T08:59:46.896Z,27.91
2018-07-15T09:01:39.863Z,27.76
2018-07-15T09:02:39.858Z,27.85
2018-07-15T09:04:32.798Z,28.04
2018-07-15T09:05:32.819Z,28.07
2018-07-15T09:07:25.780Z,28.16
2018-07-15T09:08:25.776Z,28.11
2018-07-15T09:10:18.722Z,27.76
2018-07-15T09:11:18.742Z,28.01
2018-07-15T09:13:11.702Z,28.06
2018-07-15T09:14:11.705Z,28.31
2018-07-15T09:16:04.642Z,28.75
2018-07-15T09:17:04.662Z,28.84
2018-07-15T09:18:57.620Z,29.10
2018-07-15T09:19:57.624Z,29.11
2018-07-15T09:21:50.663Z,29.37
2018-07-15T09:22:50.589Z,29.29
2018-07-15T09:24:43.526Z,28.93
2018-07-15T09:25:43.549Z,28.78
2018-07-15T09:27:36.502Z,28.97
2018-07-15T09:28:36.502Z,28.70
2018-07-15T09:30:29.440Z,28.62
2018-07-15T09:31:29.459Z,28.66
2018-07-15T09:33:22.419Z,28.53
2018-07-15T09:34:22.420Z,28.32
2018-07-15T09:36:15.360Z,28.13
2018-07-15T09:37:15.378Z,28.29
2018-07-15T09:39:08.338Z,28.47
2018-07-15T09:40:08.350Z,28.66
2018-07-15T09:42:01.295Z,28.68
2018-07-15T09:43:01.299Z,28.58
2018-07-15T09:44:54.241Z,28.28
2018-07-15T09:45:54.261Z,28.22
2018-07-15T09:47:47.220Z,28.59
2018-07-15T09:48:47.221Z,28.77
2018-07-15T09:50:40.161Z,28.78
2018-07-15T09:51:40.182Z,28.60
2018-07-15T09:53:33.138Z,28.13
2018-07-15T09:54:33.139Z,28.13
2018-07-15T09:56:26.085Z,28.09
2018-07-15T09:57:26.105Z,28.04
2018-07-15T09:59:19.056Z,28.25
2018-07-15T10:00:19.061Z,28.21
2018-07-15T10:02:12.019Z,28.31
2018-07-15T10:03:12.015Z,28.29
2018-07-15T10:05:04.951Z,28.40
2018-07-15T10:06:04.976Z,28.59
2018-07-15T10:07:57.933Z,28.84
2018-07-15T10:08:57.939Z,28.82
2018-07-15T10:10:50.876Z,28.88
2018-07-15T10:11:50.896Z,29.03
2018-07-15T10:13:43.856Z,28.90
2018-07-15T10:14:43.851Z,28.70
2018-07-15T10:16:36.796Z,28.62
2018-07-15T10:17:36.812Z,28.77
2018-07-15T10:19:29.774Z,28.84
2018-07-15T10:20:29.775Z,28.88
2018-07-15T10:22:22.731Z,29.03
2018-07-15T10:23:22.734Z,29.08
2018-07-15T10:25:15.673Z,28.85
2018-07-15T10:26:15.694Z,28.84
2018-07-15T10:28:08.650Z,28.96
2018-07-15T10:29:08.651Z,28.81
2018-07-15T10:31:01.589Z,28.72
2018-07-15T10:32:01.611Z,28.77
2018-07-15T10:33:54.568Z,28.96
2018-07-15T10:34:54.570Z,28.77
2018-07-15T10:36:47.510Z,28.75
2018-07-15T10:37:47.533Z,28.68
2018-07-15T10:39:40.493Z,28.59
2018-07-15T10:40:40.494Z,28.56
2018-07-15T10:42:33.466Z,28.81
2018-07-15T10:43:33.455Z,28.91
2018-07-15T10:45:26.390Z,28.46
2018-07-15T10:46:26.413Z,28.53
2018-07-15T10:48:19.370Z,28.59
2018-07-15T10:49:19.371Z,28.47
2018-07-15T10:51:12.316Z,28.44
2018-07-15T10:52:12.337Z,28.54
2018-07-15T10:54:05.293Z,28.81
2018-07-15T10:55:05.290Z,28.91
2018-07-15T10:56:58.233Z,29.11
2018-07-15T10:57:58.255Z,29.26
2018-07-15T10:59:51.211Z,29.57
2018-07-15T11:00:51.215Z,29.38
2018-07-15T11:02:44.184Z,29.31
2018-07-15T11:03:44.172Z,29.26
2018-07-15T11:05:37.117Z,29.26
2018-07-15T11:06:37.134Z,29.26
2018-07-15T11:08:30.090Z,29.59
2018-07-15T11:09:30.090Z,29.72
2018-07-15T11:11:23.029Z,29.68
2018-07-15T11:12:23.051Z,29.84
2018-07-15T11:14:16.011Z,29.90
2018-07-15T11:15:16.016Z,29.77
2018-07-15T11:17:08.951Z,29.23
2018-07-15T11:18:08.983Z,29.07
2018-07-15T11:20:01.934Z,29.33
2018-07-15T11:21:01.933Z,29.31
2018-07-15T11:22:54.875Z,29.72
2018-07-15T11:23:54.893Z,29.60
2018-07-15T11:25:47.861Z,29.57
2018-07-15T11:26:47.856Z,29.31
2018-07-15T11:28:40.811Z,29.45
2018-07-15T11:29:40.819Z,29.53
2018-07-15T11:31:33.767Z,29.56
2018-07-15T11:32:33.782Z,29.45
2018-07-15T11:34:26.741Z,29.82
2018-07-15T11:35:26.748Z,29.90
2018-07-15T11:37:19.686Z,29.92
2018-07-15T11:38:19.705Z,29.90
2018-07-15T11:40:12.665Z,29.57
2018-07-15T11:41:12.666Z,29.47
2018-07-15T11:43:05.608Z,29.65
2018-07-15T11:44:05.629Z,29.70
2018-07-15T11:45:58.583Z,29.86
2018-07-15T11:46:58.590Z,30.03
2018-07-15T11:48:51.548Z,30.16
2018-07-15T11:49:51.548Z,30.19
2018-07-15T11:51:44.488Z,30.19
2018-07-15T11:52:44.511Z,30.18
2018-07-15T11:54:37.485Z,29.84
2018-07-15T11:55:37.472Z,29.84
2018-07-15T11:57:30.411Z,30.08
2018-07-15T11:58:30.432Z,29.90
2018-07-15T12:00:23.389Z,29.89
2018-07-15T12:01:23.390Z,30.03
2018-07-15T12:03:16.333Z,29.93
2018-07-15T12:04:16.363Z,29.92
2018-07-15T12:06:09.318Z,30.00
2018-07-15T12:07:09.316Z,30.05
2018-07-15T12:09:02.259Z,30.11
2018-07-15T12:10:02.279Z,30.11
2018-07-15T12:11:55.235Z,30.09
2018-07-15T12:12:55.236Z,30.15
2018-07-15T12:14:48.198Z,30.37
2018-07-15T12:15:48.200Z,30.30
2018-07-15T12:17:41.138Z,30.15
2018-07-15T12:18:41.161Z,29.93
2018-07-15T12:20:34.187Z,30.16
2018-07-15T12:21:34.132Z,30.11
2018-07-15T12:23:27.071Z,30.24
2018-07-15T12:24:27.095Z,30.19
2018-07-15T12:26:20.052Z,30.24
2018-07-15T12:27:20.056Z,30.36
2018-07-15T12:29:12.994Z,30.56
2018-07-15T12:30:13.018Z,30.71
2018-07-15T12:32:05.990Z,30.64
2018-07-15T12:33:05.978Z,30.47
2018-07-15T12:34:58.937Z,30.37
2018-07-15T12:35:58.943Z,30.40
2018-07-15T12:37:51.883Z,30.23
2018-07-15T12:38:51.904Z,30.14
2018-07-15T12:40:44.863Z,30.24
2018-07-15T12:41:44.867Z,30.19
2018-07-15T12:43:37.821Z,30.02
2018-07-15T12:44:37.838Z,30.08
2018-07-15T12:46:30.801Z,30.19
2018-07-15T12:47:30.805Z,30.21
2018-07-15T12:49:23.743Z,30.24
2018-07-15T12:50:23.763Z,30.34
2018-07-15T12:52:16.722Z,30.30
2018-07-15T12:53:16.723Z,30.14
2018-07-15T12:55:09.683Z,30.16
2018-07-15T12:56:09.687Z,30.33
2018-07-15T12:58:02.626Z,30.50
2018-07-15T12:59:02.646Z,30.49
2018-07-15T13:00:55.606Z,30.61
2018-07-15T13:01:55.620Z,30.72
2018-07-15T13:03:48.553Z,30.47
2018-07-15T13:04:48.567Z,30.52
2018-07-15T13:06:41.531Z,30.78
2018-07-15T13:07:41.539Z,30.71
2018-07-15T13:09:34.478Z,30.61
2018-07-15T13:10:34.494Z,30.49
2018-07-15T13:12:27.456Z,30.34
2018-07-15T13:13:27.458Z,30.45
2018-07-15T13:15:20.400Z,30.29
2018-07-15T13:16:20.495Z,30.37
2018-07-15T13:18:13.379Z,30.47
2018-07-15T13:19:13.382Z,30.52
2018-07-15T13:21:06.338Z,30.45
2018-07-15T13:22:06.341Z,30.24
2018-07-15T13:23:59.279Z,30.36
2018-07-15T13:24:59.301Z,30.33
2018-07-15T13:26:52.261Z,30.34
2018-07-15T13:27:52.265Z,30.33
2018-07-15T13:29:45.212Z,30.54
2018-07-15T13:30:45.225Z,30.43
2018-07-15T13:32:38.185Z,30.19
2018-07-15T13:33:38.187Z,30.12
2018-07-15T13:35:31.129Z,30.09
2018-07-15T13:36:31.147Z,30.07
2018-07-15T13:38:24.114Z,29.96
2018-07-15T13:39:24.108Z,29.81
2018-07-15T13:41:17.071Z,29.78
2018-07-15T13:42:17.068Z,29.99
2018-07-15T13:44:10.008Z,30.14
2018-07-15T13:45:10.037Z,30.11
2018-07-15T13:47:02.989Z,30.27
2018-07-15T13:48:02.995Z,30.21
2018-07-15T13:49:55.934Z,30.14
2018-07-15T13:50:55.972Z,30.12
2018-07-15T13:52:49.417Z,30.08
2018-07-15T13:53:49.413Z,30.19
2018-07-15T13:55:42.353Z,30.34
2018-07-15T13:56:42.374Z,30.40
2018-07-15T13:58:35.333Z,30.24
2018-07-15T13:59:35.368Z,30.18
2018-07-15T14:01:28.291Z,30.12
2018-07-15T14:02:28.291Z,30.11
2018-07-15T14:04:21.234Z,30.15
2018-07-15T14:05:21.256Z,30.12
2018-07-15T14:07:14.213Z,30.03
2018-07-15T14:08:14.216Z,30.12
2018-07-15T14:10:07.152Z,30.03
2018-07-15T14:11:07.173Z,30.18
2018-07-15T14:13:00.135Z,30.19
2018-07-15T14:14:00.135Z,30.11
2018-07-15T14:15:53.077Z,30.27
2018-07-15T14:16:53.096Z,30.30
2018-07-15T14:18:46.054Z,30.38
2018-07-15T14:19:46.054Z,30.40
2018-07-15T14:21:39.018Z,30.46
2018-07-15T14:22:39.019Z,30.36
2018-07-15T14:24:31.956Z,30.16
2018-07-15T14:25:31.981Z,30.21
2018-07-15T14:27:24.935Z,30.16
2018-07-15T14:28:24.939Z,30.26
2018-07-15T14:30:17.886Z,30.21
2018-07-15T14:31:17.909Z,30.19
2018-07-15T14:33:10.872Z,30.40
2018-07-15T14:34:10.869Z,30.38
2018-07-15T14:36:03.806Z,30.43
2018-07-15T14:37:03.830Z,30.26
2018-07-15T14:38:56.792Z,30.14
2018-07-15T14:39:56.795Z,30.24
2018-07-15T14:41:49.754Z,30.37
2018-07-15T14:42:49.754Z,30.34
2018-07-15T14:44:42.703Z,30.36
2018-07-15T14:45:42.719Z,30.30
2018-07-15T14:47:35.676Z,30.37
2018-07-15T14:48:35.673Z,30.34
2018-07-15T14:50:28.615Z,30.33
2018-07-15T14:51:28.637Z,30.26
2018-07-15T14:53:21.599Z,30.14
2018-07-15T14:54:21.600Z,30.18
2018-07-15T14:56:14.542Z,30.23
2018-07-15T14:57:14.563Z,30.33
2018-07-15T14:59:07.522Z,30.08
2018-07-15T15:00:07.525Z,30.02
2018-07-15T15:02:00.521Z,29.86
2018-07-15T15:03:00.487Z,29.89
2018-07-15T15:04:53.431Z,30.09
2018-07-15T15:05:53.450Z,30.07
2018-07-15T15:07:46.905Z,30.09
2018-07-15T15:08:46.911Z,30.11
2018-07-15T15:10:39.849Z,30.21
2018-07-15T15:11:39.868Z,30.14
2018-07-15T15:13:32.827Z,30.05
2018-07-15T15:14:32.828Z,30.07
2018-07-15T15:16:25.772Z,29.90
2018-07-15T15:17:25.805Z,29.92
2018-07-15T15:19:18.752Z,30.09
2018-07-15T15:20:18.750Z,30.03
2018-07-15T15:22:11.709Z,30.00
2018-07-15T15:23:11.714Z,29.99
2018-07-15T15:25:04.648Z,29.90
2018-07-15T15:26:04.670Z,30.00
2018-07-15T15:27:57.631Z,29.93
2018-07-15T15:28:57.635Z,29.86
2018-07-15T15:30:50.574Z,29.92
2018-07-15T15:31:50.593Z,29.94
2018-07-15T15:33:43.591Z,29.82
2018-07-15T15:34:43.557Z,29.92
2018-07-15T15:36:36.493Z,29.86
2018-07-15T15:37:36.515Z,29.71
2018-07-15T15:39:29.475Z,29.74
2018-07-15T15:40:29.475Z,29.71
2018-07-15T15:42:22.452Z,29.74
2018-07-15T15:43:22.439Z,29.84
2018-07-15T15:45:15.377Z,29.65
2018-07-15T15:46:15.395Z,29.78
2018-07-15T15:48:08.363Z,29.77
2018-07-15T15:49:08.365Z,29.78
2018-07-15T15:51:01.315Z,29.78
2018-07-15T15:52:01.321Z,29.68
2018-07-15T15:53:54.285Z,29.49
2018-07-15T15:54:54.283Z,29.56
2018-07-15T15:56:47.225Z,29.49
2018-07-15T15:57:47.262Z,29.53
2018-07-15T15:59:40.202Z,29.62
2018-07-15T16:00:40.203Z,29.71
2018-07-15T16:02:33.164Z,29.71
2018-07-15T16:03:33.165Z,29.71
2018-07-15T16:05:26.114Z,29.62
2018-07-15T16:06:26.132Z,29.70
2018-07-15T16:08:19.086Z,29.71
2018-07-15T16:09:19.086Z,29.52
2018-07-15T16:11:12.038Z,29.31
2018-07-15T16:12:12.056Z,29.31
2018-07-15T16:14:05.011Z,29.50
2018-07-15T16:15:05.014Z,29.44
2018-07-15T16:16:57.955Z,29.52
2018-07-15T16:17:57.973Z,29.57
2018-07-15T16:19:50.935Z,29.47
2018-07-15T16:20:50.936Z,29.29
2018-07-15T16:22:43.896Z,29.28
2018-07-15T16:23:43.895Z,29.18
2018-07-15T16:25:36.836Z,29.23
2018-07-15T16:26:36.864Z,29.13
2018-07-15T16:28:29.818Z,29.11
2018-07-15T16:29:29.819Z,29.11
2018-07-15T16:31:22.766Z,29.06
2018-07-15T16:32:22.786Z,29.01
2018-07-15T16:34:15.744Z,28.97
2018-07-15T16:35:15.742Z,28.87
2018-07-15T16:37:08.696Z,28.88
2018-07-15T16:38:08.718Z,29.00
2018-07-15T16:40:01.661Z,28.97
2018-07-15T16:41:01.666Z,29.06
2018-07-15T16:42:54.622Z,28.93
2018-07-15T16:43:54.626Z,29.00
2018-07-15T16:45:47.564Z,29.07
2018-07-15T16:46:47.586Z,29.10
2018-07-15T16:48:40.541Z,29.00
2018-07-15T16:49:40.547Z,28.90
2018-07-15T16:51:33.483Z,28.84
2018-07-15T16:52:33.503Z,28.75
2018-07-15T16:54:26.456Z,28.70
2018-07-15T16:55:26.464Z,28.59
2018-07-15T16:57:19.396Z,28.63
2018-07-15T16:58:19.423Z,28.59
2018-07-15T17:00:12.378Z,28.53
2018-07-15T17:01:12.379Z,28.62
2018-07-15T17:03:05.364Z,28.44
2018-07-15T17:04:05.335Z,28.46
2018-07-15T17:05:58.278Z,28.40
2018-07-15T17:06:58.365Z,28.43
2018-07-15T17:08:51.252Z,28.32
2018-07-15T17:09:51.253Z,28.31
2018-07-15T17:11:44.217Z,28.21
2018-07-15T17:12:44.215Z,28.29
2018-07-15T17:14:37.171Z,28.28
2018-07-15T17:15:37.175Z,28.31
2018-07-15T17:17:30.185Z,28.28
2018-07-15T17:18:30.208Z,28.29
2018-07-15T17:20:23.166Z,28.21
2018-07-15T17:21:23.166Z,28.11
2018-07-15T17:23:16.136Z,28.11
2018-07-15T17:24:16.125Z,28.16
2018-07-15T17:26:09.061Z,28.19
2018-07-15T17:27:09.083Z,28.16
2018-07-15T17:29:02.035Z,28.26
2018-07-15T17:30:02.036Z,28.14
2018-07-15T17:31:54.970Z,28.17
2018-07-15T17:32:54.993Z,28.04
2018-07-15T17:34:47.950Z,27.98
2018-07-15T17:35:47.948Z,27.91
2018-07-15T17:37:40.888Z,28.03
2018-07-15T17:38:40.905Z,27.96
2018-07-15T17:40:33.931Z,28.04
2018-07-15T17:41:33.868Z,27.94
2018-07-15T17:43:26.830Z,27.88
2018-07-15T17:44:26.814Z,27.77
2018-07-15T17:46:19.785Z,27.76
2018-07-15T17:47:19.779Z,27.71
2018-07-15T17:49:12.728Z,27.76
2018-07-15T17:50:12.726Z,27.74
2018-07-15T17:52:05.678Z,27.73
2018-07-15T17:53:05.688Z,27.77
2018-07-15T17:54:58.648Z,27.73
2018-07-15T17:55:58.655Z,27.70
2018-07-15T17:57:51.606Z,27.66
2018-07-15T17:58:51.670Z,27.61
2018-07-15T18:00:44.575Z,27.54
2018-07-15T18:01:44.576Z,27.58
2018-07-15T18:03:37.514Z,27.46
2018-07-15T18:04:37.573Z,27.46
2018-07-15T18:06:30.486Z,27.46
2018-07-15T18:07:30.488Z,27.38
2018-07-15T18:09:23.450Z,27.42
2018-07-15T18:10:23.447Z,27.39
2018-07-15T18:12:16.383Z,27.39
2018-07-15T18:13:16.406Z,27.42
2018-07-15T18:15:09.363Z,27.32
2018-07-15T18:16:09.401Z,27.33
2018-07-15T18:18:02.298Z,27.20
2018-07-15T18:19:02.316Z,27.20
2018-07-15T18:20:55.310Z,27.19
2018-07-15T18:21:55.309Z,27.14
2018-07-15T18:23:48.276Z,26.95
2018-07-15T18:24:48.269Z,26.99
2018-07-15T18:26:41.198Z,26.98
2018-07-15T18:27:41.255Z,26.99
2018-07-15T18:29:34.190Z,26.91
2018-07-15T18:30:34.193Z,26.98
2018-07-15T18:32:27.130Z,26.86
2018-07-15T18:33:27.214Z,26.80
2018-07-15T18:35:20.102Z,26.79
2018-07-15T18:36:20.103Z,26.80
2018-07-15T18:38:13.040Z,26.74
2018-07-15T18:39:13.124Z,26.72
2018-07-15T18:41:06.022Z,26.72
2018-07-15T18:42:06.019Z,26.73
2018-07-15T18:43:58.999Z,26.67
2018-07-15T18:44:59.050Z,26.57
2018-07-15T18:46:51.916Z,26.50
2018-07-15T18:47:51.939Z,26.46
2018-07-15T18:49:44.892Z,26.39
2018-07-15T18:50:44.893Z,26.40
2018-07-15T18:52:37.841Z,26.29
2018-07-15T18:53:37.893Z,26.27
2018-07-15T18:55:30.820Z,26.21
2018-07-15T18:56:30.808Z,26.12
2018-07-15T18:58:23.748Z,26.02
2018-07-15T18:59:23.763Z,26.05
2018-07-15T19:01:16.718Z,26.01